createdAt,value
2023-03-31T00:04:31.018Z,1000.35
2023-03-31T00:10:54.040Z,1000.18
2023-03-31T00:17:14.031Z,1000.05
2023-03-31T00:23:36.988Z,999.97
2023-03-31T00:29:56.998Z,999.87
2023-03-31T00:36:20.044Z,999.81
2023-03-31T00:42:40.006Z,999.69
2023-03-31T00:49:02.989Z,999.54
2023-03-31T00:55:22.998Z,999.44
2023-03-31T01:01:46.031Z,999.34
2023-03-31T01:08:06.037Z,999.2
2023-03-31T01:14:29.012Z,999.03
2023-03-31T01:20:48.987Z,998.91
2023-03-31T01:27:12.007Z,998.77
2023-03-31T01:33:32.049Z,998.66
2023-03-31T01:39:55.001Z,998.6
2023-03-31T01:46:15.030Z,998.5
2023-03-31T01:52:38.016Z,998.4
2023-03-31T01:58:57.993Z,998.3
2023-03-31T02:05:20.983Z,998.21
2023-03-31T02:11:41.038Z,998.15
2023-03-31T02:18:04.045Z,998.01
2023-03-31T02:24:23.992Z,997.85
2023-03-31T02:30:47.001Z,997.59
2023-03-31T02:37:07.024Z,997.4
2023-03-31T02:43:29.994Z,997.14
2023-03-31T02:49:50.012Z,996.93
2023-03-31T02:56:12.995Z,996.89
2023-03-31T03:02:33.090Z,996.57
2023-03-31T03:08:56.009Z,996.36
2023-03-31T03:15:15.993Z,996.22
2023-03-31T03:21:38.998Z,996.14
2023-03-31T03:27:59.013Z,996.1
2023-03-31T03:34:21.984Z,996.1
2023-03-31T03:40:41.986Z,995.89
2023-03-31T03:47:06.180Z,995.67
2023-03-31T03:53:24.987Z,995.58
2023-03-31T03:59:48.024Z,995.48
2023-03-31T04:06:08.412Z,995.46
2023-03-31T04:12:30.973Z,995.4
2023-03-31T04:34:57.996Z,994.9
2023-03-31T04:41:20.991Z,994.71
2023-03-31T04:47:40.986Z,994.38
2023-03-31T04:54:04.049Z,994.12
2023-03-31T05:00:23.978Z,994
2023-03-31T05:06:47.002Z,993.96
2023-03-31T05:13:07.040Z,993.73
2023-03-31T05:19:29.989Z,993.71
2023-03-31T05:25:49.987Z,993.65
2023-03-31T05:32:13.066Z,993.46
2023-03-31T05:38:33.003Z,993.3
2023-03-31T05:44:56.002Z,993.22
2023-03-31T05:51:15.994Z,993.14
2023-03-31T05:57:38.999Z,993.02
2023-03-31T06:03:59.038Z,992.95
2023-03-31T06:10:22.052Z,992.85
2023-03-31T06:16:41.983Z,992.81
2023-03-31T06:23:05.000Z,992.55
2023-03-31T06:29:25.029Z,992.47
2023-03-31T06:35:48.019Z,992.41
2023-03-31T06:42:08.006Z,992.37
2023-03-31T06:48:31.040Z,992.31
2023-03-31T06:54:51.058Z,992.27
2023-03-31T07:01:14.019Z,992.27
2023-03-31T07:07:34.082Z,992.24
2023-03-31T07:13:57.038Z,992.22
2023-03-31T07:20:17.008Z,992.2
2023-03-31T07:26:40.051Z,992.14
2023-03-31T07:33:00.145Z,992.14
2023-03-31T07:39:22.979Z,992.08
2023-03-31T07:45:43.039Z,992.06
2023-03-31T07:52:06.103Z,992.08
2023-03-31T07:58:26.100Z,992.04
2023-03-31T08:04:49.020Z,992.1
2023-03-31T08:11:09.098Z,991.94
2023-03-31T08:17:32.037Z,991.82
2023-03-31T08:23:52.026Z,991.73
2023-03-31T08:30:14.991Z,991.69
2023-03-31T08:36:34.999Z,991.67
2023-03-31T08:42:58.034Z,991.61
2023-03-31T08:49:18.027Z,991.55
2023-03-31T08:55:41.034Z,991.53
2023-03-31T09:02:01.029Z,991.45
2023-03-31T09:08:24.035Z,991.35
2023-03-31T09:14:44.019Z,991.26
2023-03-31T09:21:07.265Z,991.14
2023-03-31T09:44:14.023Z,990.94
2023-03-31T09:50:33.982Z,990.86
2023-03-31T09:56:57.033Z,990.86
2023-03-31T10:03:17.059Z,990.75
2023-03-31T10:09:40.014Z,990.63
2023-03-31T10:16:00.005Z,990.57
2023-03-31T10:22:23.007Z,990.55
2023-03-31T10:28:43.001Z,990.55
2023-03-31T10:35:06.001Z,990.53
2023-03-31T10:41:26.038Z,990.49
2023-03-31T10:47:49.019Z,990.53
2023-03-31T10:54:09.112Z,990.71
2023-03-31T11:00:32.214Z,990.67
2023-03-31T11:06:51.993Z,990.67
2023-03-31T11:13:15.282Z,990.69
2023-03-31T11:19:35.324Z,990.71
2023-03-31T11:25:57.972Z,990.65
2023-03-31T11:32:17.990Z,990.49
2023-03-31T11:38:41.022Z,990.36
2023-03-31T11:45:02.075Z,990.28
2023-03-31T11:51:24.985Z,990.26
2023-03-31T11:57:45.005Z,990.2
2023-03-31T12:04:08.027Z,990.1
2023-03-31T12:10:28.550Z,990.18
2023-03-31T12:16:52.255Z,990.2
2023-03-31T12:23:12.007Z,990.14
2023-03-31T12:29:34.998Z,989.98
2023-03-31T12:35:55.127Z,989.96
2023-03-31T12:42:17.988Z,989.9
2023-03-31T12:48:38.110Z,989.84
2023-03-31T12:55:01.019Z,989.78
2023-03-31T13:01:21.010Z,989.68
2023-03-31T13:07:43.992Z,989.59
2023-03-31T13:14:04.026Z,989.43
2023-03-31T13:20:27.020Z,989.31
2023-03-31T13:26:47.015Z,989.23
2023-03-31T13:33:12.085Z,989.39
2023-03-31T13:39:31.998Z,989.47
2023-03-31T13:45:55.138Z,989.43
2023-03-31T13:52:15.023Z,989.37
2023-03-31T13:58:38.151Z,989.33
2023-03-31T14:04:57.996Z,989.33
2023-03-31T14:11:21.030Z,989.29
2023-03-31T14:17:41.007Z,989.23
2023-03-31T14:24:03.999Z,989.18
2023-03-31T14:30:24.014Z,989.14
2023-03-31T14:36:47.034Z,989.08
2023-03-31T14:59:31.999Z,988.98
2023-03-31T15:05:55.117Z,988.94
2023-03-31T15:12:15.040Z,988.88
2023-03-31T15:18:38.014Z,988.82
2023-03-31T15:24:57.992Z,988.82
2023-03-31T15:31:21.027Z,988.84
2023-03-31T15:37:41.053Z,988.82
2023-03-31T15:44:03.981Z,988.88
2023-03-31T15:50:23.973Z,988.9
2023-03-31T15:56:47.042Z,988.88
2023-03-31T16:03:07.013Z,988.88
2023-03-31T16:09:30.008Z,988.88
2023-03-31T16:15:50.048Z,988.84
2023-03-31T16:22:13.014Z,988.9
2023-03-31T16:28:32.998Z,988.88
2023-03-31T16:34:56.018Z,988.92
2023-03-31T16:41:15.988Z,988.94
2023-03-31T16:47:39.156Z,988.9
2023-03-31T16:53:59.511Z,988.86
2023-03-31T17:00:22.283Z,988.88
2023-03-31T17:06:41.971Z,988.98
2023-03-31T17:13:05.038Z,988.98
2023-03-31T17:19:24.977Z,989
2023-03-31T17:25:48.065Z,989
2023-03-31T17:32:08.214Z,988.96
2023-03-31T17:38:31.045Z,989
2023-03-31T17:44:51.014Z,989
2023-03-31T17:51:14.088Z,989.06
2023-03-31T17:57:34.022Z,989.1
2023-03-31T18:03:56.989Z,989.16
2023-03-31T18:10:17.020Z,989.23
2023-03-31T18:16:40.041Z,989.21
2023-03-31T18:23:00.008Z,989.23
2023-03-31T18:29:23.011Z,989.21
2023-03-31T18:35:43.075Z,989.27
2023-03-31T18:42:05.995Z,989.25
2023-03-31T18:48:26.013Z,989.23
2023-03-31T18:54:48.992Z,989.25
2023-03-31T19:01:09.016Z,989.37
2023-03-31T19:07:32.001Z,989.39
2023-03-31T19:13:52.014Z,989.49
2023-03-31T19:20:14.992Z,989.57
2023-03-31T19:26:35.051Z,989.55
2023-03-31T19:32:58.030Z,989.63
2023-03-31T19:39:18.010Z,989.63
2023-03-31T19:45:41.064Z,989.63
2023-03-31T20:07:32.993Z,989.53
2023-03-31T20:13:55.980Z,989.47
2023-03-31T20:20:16.004Z,989.43
2023-03-31T20:26:39.024Z,989.43
2023-03-31T20:32:59.023Z,989.45
2023-03-31T20:39:21.991Z,989.41
2023-03-31T20:45:41.999Z,989.37
2023-03-31T20:52:05.011Z,989.37
2023-03-31T20:58:25.003Z,989.35
2023-03-31T21:04:49.810Z,989.33
2023-03-31T21:11:07.997Z,989.39
2023-03-31T21:17:30.985Z,989.41
2023-03-31T21:23:51.018Z,989.45
2023-03-31T21:30:13.995Z,989.49
2023-03-31T21:36:34.001Z,989.49
2023-03-31T21:42:57.019Z,989.53
2023-03-31T21:49:17.460Z,989.45
2023-03-31T21:55:39.999Z,989.41
2023-03-31T22:02:00.056Z,989.43
2023-03-31T22:08:23.026Z,989.43
2023-03-31T22:14:42.995Z,989.45
2023-03-31T22:21:06.032Z,989.45
2023-03-31T22:27:25.975Z,989.47
2023-03-31T22:33:49.010Z,989.45
2023-03-31T22:40:09.030Z,989.43
2023-03-31T22:46:32.004Z,989.43
2023-03-31T22:52:52.126Z,989.45
2023-03-31T22:59:15.033Z,989.45
2023-03-31T23:22:11.991Z,989.47
2023-03-31T23:28:31.988Z,989.47
2023-03-31T23:34:54.989Z,989.43
2023-03-31T23:41:15.012Z,989.41
2023-03-31T23:47:37.986Z,989.35
2023-03-31T23:53:57.984Z,989.33
